sensor_id;sensor_type;location;lat;lon;timestamp;pressure;altitude;pressure_sealevel;temperature;humidity
58072;BME280;60383;46.626;18.866;2023-02-10T00:03:31;102619.00;;;-2.59;69.64
58072;BME280;60383;46.626;18.866;2023-02-10T00:05:56;102618.22;;;-2.69;70.04
58072;BME280;60383;46.626;18.866;2023-02-10T00:08:22;102619.91;;;-2.59;69.97
58072;BME280;60383;46.626;18.866;2023-02-10T00:10:47;102619.03;;;-2.61;69.45
58072;BME280;60383;46.626;18.866;2023-02-10T00:13:13;102625.41;;;-2.71;68.78
58072;BME280;60383;46.626;18.866;2023-02-10T00:15:38;102623.66;;;-2.72;68.16
58072;BME280;60383;46.626;18.866;2023-02-10T00:18:04;102626.41;;;-2.78;68.25
58072;BME280;60383;46.626;18.866;2023-02-10T00:20:29;102629.28;;;-2.98;68.30
58072;BME280;60383;46.626;18.866;2023-02-10T00:22:55;102617.81;;;-3.13;68.31
58072;BME280;60383;46.626;18.866;2023-02-10T00:25:20;102628.47;;;-3.07;68.75
58072;BME280;60383;46.626;18.866;2023-02-10T00:27:46;102625.81;;;-3.08;68.60
58072;BME280;60383;46.626;18.866;2023-02-10T00:30:11;102632.28;;;-3.28;69.06
58072;BME280;60383;46.626;18.866;2023-02-10T00:32:37;102632.28;;;-3.31;69.08
58072;BME280;60383;46.626;18.866;2023-02-10T00:35:06;102634.25;;;-3.48;69.15
58072;BME280;60383;46.626;18.866;2023-02-10T00:37:32;102631.41;;;-3.31;69.07
58072;BME280;60383;46.626;18.866;2023-02-10T00:39:57;102624.28;;;-3.34;69.09
58072;BME280;60383;46.626;18.866;2023-02-10T00:42:23;102627.88;;;-3.35;69.28
58072;BME280;60383;46.626;18.866;2023-02-10T00:44:48;102627.84;;;-3.33;69.24
58072;BME280;60383;46.626;18.866;2023-02-10T00:47:14;102618.13;;;-3.45;68.85
58072;BME280;60383;46.626;18.866;2023-02-10T00:49:39;102625.25;;;-3.44;69.19
58072;BME280;60383;46.626;18.866;2023-02-10T00:52:05;102621.72;;;-3.48;70.84
58072;BME280;60383;46.626;18.866;2023-02-10T00:54:30;102620.56;;;-3.22;69.86
58072;BME280;60383;46.626;18.866;2023-02-10T00:56:55;102625.06;;;-3.26;68.87
58072;BME280;60383;46.626;18.866;2023-02-10T00:59:21;102615.38;;;-3.38;69.12
58072;BME280;60383;46.626;18.866;2023-02-10T01:01:47;102621.56;;;-3.31;68.99
58072;BME280;60383;46.626;18.866;2023-02-10T01:04:12;102615.44;;;-3.44;69.09
58072;BME280;60383;46.626;18.866;2023-02-10T01:06:38;102616.34;;;-3.46;68.93
58072;BME280;60383;46.626;18.866;2023-02-10T01:09:03;102624.50;;;-3.57;69.16
58072;BME280;60383;46.626;18.866;2023-02-10T01:11:29;102625.28;;;-3.49;68.62
58072;BME280;60383;46.626;18.866;2023-02-10T01:13:54;102620.22;;;-3.81;69.13
58072;BME280;60383;46.626;18.866;2023-02-10T01:16:20;102622.03;;;-3.88;69.73
58072;BME280;60383;46.626;18.866;2023-02-10T01:18:46;102626.50;;;-3.89;70.02
58072;BME280;60383;46.626;18.866;2023-02-10T01:21:17;102620.16;;;-3.74;69.68
58072;BME280;60383;46.626;18.866;2023-02-10T01:23:44;102630.13;;;-3.99;70.21
58072;BME280;60383;46.626;18.866;2023-02-10T01:26:09;102624.69;;;-3.85;69.96
58072;BME280;60383;46.626;18.866;2023-02-10T01:28:36;102622.81;;;-3.77;69.92
58072;BME280;60383;46.626;18.866;2023-02-10T01:31:11;102632.72;;;-3.87;70.40
58072;BME280;60383;46.626;18.866;2023-02-10T01:33:37;102620.13;;;-3.69;69.72
58072;BME280;60383;46.626;18.866;2023-02-10T01:36:08;102622.69;;;-3.60;69.36
58072;BME280;60383;46.626;18.866;2023-02-10T01:38:34;102616.41;;;-3.54;69.27
58072;BME280;60383;46.626;18.866;2023-02-10T01:41:01;102621.94;;;-3.73;70.77
58072;BME280;60383;46.626;18.866;2023-02-10T01:43:26;102617.47;;;-3.74;70.83
58072;BME280;60383;46.626;18.866;2023-02-10T01:45:52;102616.38;;;-3.49;72.08
58072;BME280;60383;46.626;18.866;2023-02-10T01:48:18;102628.84;;;-3.45;72.60
58072;BME280;60383;46.626;18.866;2023-02-10T01:51:02;102623.75;;;-3.76;73.23
58072;BME280;60383;46.626;18.866;2023-02-10T01:53:29;102621.94;;;-3.77;73.09
58072;BME280;60383;46.626;18.866;2023-02-10T01:55:56;102625.53;;;-3.75;73.88
58072;BME280;60383;46.626;18.866;2023-02-10T01:58:25;102614.66;;;-3.60;74.38
58072;BME280;60383;46.626;18.866;2023-02-10T02:00:52;102610.31;;;-3.75;74.84
58072;BME280;60383;46.626;18.866;2023-02-10T02:03:17;102612.88;;;-3.58;73.14
58072;BME280;60383;46.626;18.866;2023-02-10T02:05:43;102612.13;;;-3.75;72.88
58072;BME280;60383;46.626;18.866;2023-02-10T02:11:10;102608.59;;;-3.79;73.71
58072;BME280;60383;46.626;18.866;2023-02-10T02:22:32;102602.19;;;-3.61;74.92
58072;BME280;60383;46.626;18.866;2023-02-10T02:28:05;102604.00;;;-3.63;75.88
58072;BME280;60383;46.626;18.866;2023-02-10T02:33:32;102597.81;;;-3.73;76.35
58072;BME280;60383;46.626;18.866;2023-02-10T02:36:04;102595.25;;;-3.85;77.09
58072;BME280;60383;46.626;18.866;2023-02-10T02:38:40;102596.97;;;-3.76;77.60
58072;BME280;60383;46.626;18.866;2023-02-10T02:41:07;102603.19;;;-3.73;77.56
58072;BME280;60383;46.626;18.866;2023-02-10T02:43:33;102604.19;;;-3.89;78.52
58072;BME280;60383;46.626;18.866;2023-02-10T02:46:08;102605.06;;;-3.90;78.10
58072;BME280;60383;46.626;18.866;2023-02-10T02:51:39;102604.97;;;-3.75;75.98
58072;BME280;60383;46.626;18.866;2023-02-10T02:56:58;102605.16;;;-3.99;76.17
58072;BME280;60383;46.626;18.866;2023-02-10T03:01:56;102602.47;;;-3.99;77.94
58072;BME280;60383;46.626;18.866;2023-02-10T03:04:23;102608.69;;;-3.97;78.80
58072;BME280;60383;46.626;18.866;2023-02-10T03:06:52;102612.22;;;-3.91;79.24
58072;BME280;60383;46.626;18.866;2023-02-10T03:09:17;102611.44;;;-4.05;79.43
58072;BME280;60383;46.626;18.866;2023-02-10T03:11:43;102611.44;;;-4.07;78.15
58072;BME280;60383;46.626;18.866;2023-02-10T03:14:09;102615.88;;;-4.03;77.97
58072;BME280;60383;46.626;18.866;2023-02-10T03:16:34;102614.09;;;-4.01;77.56
58072;BME280;60383;46.626;18.866;2023-02-10T03:18:59;102617.69;;;-4.03;78.16
58072;BME280;60383;46.626;18.866;2023-02-10T03:21:25;102609.56;;;-3.91;78.85
58072;BME280;60383;46.626;18.866;2023-02-10T03:23:51;102606.81;;;-3.83;78.85
58072;BME280;60383;46.626;18.866;2023-02-10T03:26:16;102610.44;;;-3.89;79.49
58072;BME280;60383;46.626;18.866;2023-02-10T03:28:42;102604.38;;;-4.19;79.21
58072;BME280;60383;46.626;18.866;2023-02-10T03:31:08;102608.00;;;-4.27;79.37
58072;BME280;60383;46.626;18.866;2023-02-10T03:33:34;102611.69;;;-4.52;80.33
58072;BME280;60383;46.626;18.866;2023-02-10T03:36:00;102612.41;;;-4.19;78.90
58072;BME280;60383;46.626;18.866;2023-02-10T03:38:26;102612.28;;;-4.00;77.49
58072;BME280;60383;46.626;18.866;2023-02-10T03:40:52;102607.88;;;-4.07;76.08
58072;BME280;60383;46.626;18.866;2023-02-10T03:43:19;102610.66;;;-4.29;76.83
58072;BME280;60383;46.626;18.866;2023-02-10T03:45:44;102615.25;;;-4.56;79.33
58072;BME280;60383;46.626;18.866;2023-02-10T03:48:10;102612.56;;;-4.48;79.58
58072;BME280;60383;46.626;18.866;2023-02-10T03:50:36;102617.81;;;-4.28;78.03
58072;BME280;60383;46.626;18.866;2023-02-10T03:53:02;102622.34;;;-4.39;76.61
58072;BME280;60383;46.626;18.866;2023-02-10T03:55:27;102625.81;;;-4.20;75.27
58072;BME280;60383;46.626;18.866;2023-02-10T03:57:53;102620.50;;;-4.31;74.81
58072;BME280;60383;46.626;18.866;2023-02-10T04:00:18;102617.03;;;-4.47;75.42
58072;BME280;60383;46.626;18.866;2023-02-10T04:02:44;102610.84;;;-4.63;75.56
58072;BME280;60383;46.626;18.866;2023-02-10T04:05:10;102605.44;;;-4.49;75.84
58072;BME280;60383;46.626;18.866;2023-02-10T04:07:36;102608.09;;;-4.46;77.44
58072;BME280;60383;46.626;18.866;2023-02-10T04:10:02;102610.75;;;-4.43;77.75
58072;BME280;60383;46.626;18.866;2023-02-10T04:12:28;102607.13;;;-4.29;77.31
58072;BME280;60383;46.626;18.866;2023-02-10T04:14:53;102603.50;;;-4.21;76.79
58072;BME280;60383;46.626;18.866;2023-02-10T04:17:37;102610.69;;;-4.32;76.42
58072;BME280;60383;46.626;18.866;2023-02-10T04:20:02;102609.81;;;-4.32;75.78
58072;BME280;60383;46.626;18.866;2023-02-10T04:22:28;102609.00;;;-4.47;76.56
58072;BME280;60383;46.626;18.866;2023-02-10T04:24:53;102608.94;;;-4.35;77.14
58072;BME280;60383;46.626;18.866;2023-02-10T04:27:19;102615.97;;;-4.20;77.43
58072;BME280;60383;46.626;18.866;2023-02-10T04:29:44;102615.97;;;-4.17;76.99
58072;BME280;60383;46.626;18.866;2023-02-10T04:32:09;102611.50;;;-4.16;76.16
58072;BME280;60383;46.626;18.866;2023-02-10T04:34:35;102615.97;;;-4.20;75.77
58072;BME280;60383;46.626;18.866;2023-02-10T04:37:00;102619.63;;;-4.30;75.38
58072;BME280;60383;46.626;18.866;2023-02-10T04:39:26;102615.16;;;-4.31;76.23
58072;BME280;60383;46.626;18.866;2023-02-10T04:41:51;102616.06;;;-4.37;76.90
58072;BME280;60383;46.626;18.866;2023-02-10T04:44:17;102620.47;;;-4.25;76.80
58072;BME280;60383;46.626;18.866;2023-02-10T04:46:42;102618.72;;;-4.32;75.75
58072;BME280;60383;46.626;18.866;2023-02-10T04:49:08;102612.44;;;-4.28;77.91
58072;BME280;60383;46.626;18.866;2023-02-10T04:51:33;102608.91;;;-4.31;77.87
58072;BME280;60383;46.626;18.866;2023-02-10T04:53:59;102619.59;;;-4.31;77.05
58072;BME280;60383;46.626;18.866;2023-02-10T04:56:24;102614.22;;;-4.24;77.16
58072;BME280;60383;46.626;18.866;2023-02-10T04:58:50;102615.13;;;-4.25;76.55
58072;BME280;60383;46.626;18.866;2023-02-10T05:01:15;102606.28;;;-4.39;76.69
58072;BME280;60383;46.626;18.866;2023-02-10T05:03:41;102610.66;;;-4.29;77.15
58072;BME280;60383;46.626;18.866;2023-02-10T05:06:11;102608.97;;;-4.39;77.21
58072;BME280;60383;46.626;18.866;2023-02-10T05:08:38;102601.84;;;-4.45;77.20
58072;BME280;60383;46.626;18.866;2023-02-10T05:11:11;102606.22;;;-4.27;77.79
58072;BME280;60383;46.626;18.866;2023-02-10T05:13:37;102612.50;;;-4.34;77.48
58072;BME280;60383;46.626;18.866;2023-02-10T05:16:04;102612.50;;;-4.36;77.07
58072;BME280;60383;46.626;18.866;2023-02-10T05:18:30;102613.44;;;-4.40;76.67
58072;BME280;60383;46.626;18.866;2023-02-10T05:20:56;102619.75;;;-4.58;75.80
58072;BME280;60383;46.626;18.866;2023-02-10T05:23:21;102621.53;;;-4.60;75.22
58072;BME280;60383;46.626;18.866;2023-02-10T05:25:47;102617.94;;;-4.53;75.09
58072;BME280;60383;46.626;18.866;2023-02-10T05:28:12;102613.47;;;-4.51;74.84
58072;BME280;60383;46.626;18.866;2023-02-10T05:30:38;102609.03;;;-4.52;75.12
58072;BME280;60383;46.626;18.866;2023-02-10T05:33:03;102609.06;;;-4.66;74.95
58072;BME280;60383;46.626;18.866;2023-02-10T05:35:29;102604.53;;;-4.51;74.85
58072;BME280;60383;46.626;18.866;2023-02-10T05:37:54;102613.44;;;-4.46;74.57
58072;BME280;60383;46.626;18.866;2023-02-10T05:40:19;102611.69;;;-4.52;74.66
58072;BME280;60383;46.626;18.866;2023-02-10T05:42:45;102612.56;;;-4.46;74.47
58072;BME280;60383;46.626;18.866;2023-02-10T05:45:10;102611.72;;;-4.58;74.31
58072;BME280;60383;46.626;18.866;2023-02-10T05:47:36;102611.75;;;-4.62;74.10
58072;BME280;60383;46.626;18.866;2023-02-10T05:50:01;102615.31;;;-4.70;74.92
58072;BME280;60383;46.626;18.866;2023-02-10T05:52:27;102622.50;;;-4.79;74.79
58072;BME280;60383;46.626;18.866;2023-02-10T05:54:52;102623.38;;;-4.77;74.22
58072;BME280;60383;46.626;18.866;2023-02-10T05:57:17;102628.72;;;-4.79;74.63
58072;BME280;60383;46.626;18.866;2023-02-10T05:59:43;102634.94;;;-4.69;74.40
58072;BME280;60383;46.626;18.866;2023-02-10T06:02:08;102641.19;;;-4.72;73.59
58072;BME280;60383;46.626;18.866;2023-02-10T06:04:34;102641.16;;;-4.62;73.47
58072;BME280;60383;46.626;18.866;2023-02-10T06:06:59;102647.38;;;-4.57;73.40
58072;BME280;60383;46.626;18.866;2023-02-10T06:09:25;102643.78;;;-4.50;72.80
58072;BME280;60383;46.626;18.866;2023-02-10T06:11:52;102643.78;;;-4.52;72.61
58072;BME280;60383;46.626;18.866;2023-02-10T06:14:18;102643.72;;;-4.38;72.22
58072;BME280;60383;46.626;18.866;2023-02-10T06:16:44;102646.31;;;-4.19;72.04
58072;BME280;60383;46.626;18.866;2023-02-10T06:19:09;102649.69;;;-3.85;71.44
58072;BME280;60383;46.626;18.866;2023-02-10T06:21:35;102645.13;;;-3.72;70.34
58072;BME280;60383;46.626;18.866;2023-02-10T06:24:00;102654.69;;;-3.38;69.87
58072;BME280;60383;46.626;18.866;2023-02-10T06:26:25;102662.72;;;-3.35;69.72
58072;BME280;60383;46.626;18.866;2023-02-10T06:28:53;102670.88;;;-3.52;69.87
58072;BME280;60383;46.626;18.866;2023-02-10T06:31:18;102683.34;;;-3.45;69.67
58072;BME280;60383;46.626;18.866;2023-02-10T06:33:44;102679.63;;;-3.30;69.30
58072;BME280;60383;46.626;18.866;2023-02-10T06:36:09;102685.41;;;-2.80;67.92
58072;BME280;60383;46.626;18.866;2023-02-10T06:38:36;102695.22;;;-2.76;67.21
58072;BME280;60383;46.626;18.866;2023-02-10T06:41:03;102690.06;;;-2.97;67.48
58072;BME280;60383;46.626;18.866;2023-02-10T06:43:29;102705.84;;;-2.68;67.40
58072;BME280;60383;46.626;18.866;2023-02-10T06:45:54;102701.19;;;-2.50;67.69
58072;BME280;60383;46.626;18.866;2023-02-10T06:48:20;102698.34;;;-2.36;67.64
58072;BME280;60383;46.626;18.866;2023-02-10T06:50:45;102710.84;;;-1.67;65.29
58072;BME280;60383;46.626;18.866;2023-02-10T06:53:11;102709.03;;;-0.57;62.15
58072;BME280;60383;46.626;18.866;2023-02-10T06:55:36;102715.09;;;-0.95;61.91
58072;BME280;60383;46.626;18.866;2023-02-10T06:58:03;102711.41;;;-0.88;61.84
58072;BME280;60383;46.626;18.866;2023-02-10T07:00:28;102718.81;;;0.34;59.43
58072;BME280;60383;46.626;18.866;2023-02-10T07:02:54;102722.34;;;1.44;56.18
58072;BME280;60383;46.626;18.866;2023-02-10T07:05:20;102720.97;;;1.62;55.41
58072;BME280;60383;46.626;18.866;2023-02-10T07:07:46;102714.72;;;2.21;54.27
58072;BME280;60383;46.626;18.866;2023-02-10T07:10:11;102713.91;;;3.03;53.37
58072;BME280;60383;46.626;18.866;2023-02-10T07:12:37;102723.16;;;3.23;52.85
58072;BME280;60383;46.626;18.866;2023-02-10T07:15:04;102721.94;;;3.57;52.12
58072;BME280;60383;46.626;18.866;2023-02-10T07:17:30;102716.25;;;4.13;51.68
58072;BME280;60383;46.626;18.866;2023-02-10T07:19:56;102718.78;;;4.18;50.83
58072;BME280;60383;46.626;18.866;2023-02-10T07:22:21;102723.03;;;4.92;48.54
58072;BME280;60383;46.626;18.866;2023-02-10T07:24:47;102730.91;;;5.20;47.50
58072;BME280;60383;46.626;18.866;2023-02-10T07:27:12;102729.03;;;4.10;51.34
58072;BME280;60383;46.626;18.866;2023-02-10T07:29:38;102724.88;;;4.69;50.89
58072;BME280;60383;46.626;18.866;2023-02-10T07:32:03;102725.31;;;4.80;50.80
58072;BME280;60383;46.626;18.866;2023-02-10T07:34:29;102727.47;;;4.26;49.22
58072;BME280;60383;46.626;18.866;2023-02-10T07:36:56;102727.31;;;4.07;51.21
58072;BME280;60383;46.626;18.866;2023-02-10T07:39:26;102726.94;;;4.40;49.80
58072;BME280;60383;46.626;18.866;2023-02-10T07:41:52;102727.09;;;3.64;52.51
58072;BME280;60383;46.626;18.866;2023-02-10T07:44:17;102731.47;;;3.68;52.13
58072;BME280;60383;46.626;18.866;2023-02-10T07:46:44;102727.47;;;3.28;54.92
58072;BME280;60383;46.626;18.866;2023-02-10T07:49:09;102726.09;;;2.33;56.44
58072;BME280;60383;46.626;18.866;2023-02-10T07:51:35;102730.16;;;2.18;56.88
58072;BME280;60383;46.626;18.866;2023-02-10T07:54:00;102731.41;;;1.74;57.02
58072;BME280;60383;46.626;18.866;2023-02-10T07:56:26;102728.66;;;1.76;56.99
58072;BME280;60383;46.626;18.866;2023-02-10T07:58:51;102735.00;;;2.65;52.56
58072;BME280;60383;46.626;18.866;2023-02-10T08:01:17;102724.03;;;2.69;51.59
58072;BME280;60383;46.626;18.866;2023-02-10T08:03:42;102722.78;;;3.33;51.05
58072;BME280;60383;46.626;18.866;2023-02-10T08:06:08;102731.09;;;3.78;50.18
58072;BME280;60383;46.626;18.866;2023-02-10T08:08:34;102730.97;;;4.06;49.36
58072;BME280;60383;46.626;18.866;2023-02-10T08:11:03;102725.28;;;4.36;47.71
58072;BME280;60383;46.626;18.866;2023-02-10T08:13:28;102715.22;;;4.16;47.99
58072;BME280;60383;46.626;18.866;2023-02-10T08:15:55;102715.19;;;3.94;49.43
58072;BME280;60383;46.626;18.866;2023-02-10T08:18:20;102721.13;;;3.29;50.95
58072;BME280;60383;46.626;18.866;2023-02-10T08:20:46;102713.41;;;3.93;50.98
58072;BME280;60383;46.626;18.866;2023-02-10T08:23:16;102717.06;;;3.92;51.12
58072;BME280;60383;46.626;18.866;2023-02-10T08:25:42;102709.88;;;4.14;50.38
58072;BME280;60383;46.626;18.866;2023-02-10T08:28:07;102711.44;;;4.20;48.48
58072;BME280;60383;46.626;18.866;2023-02-10T08:30:33;102713.72;;;4.31;47.43
58072;BME280;60383;46.626;18.866;2023-02-10T08:32:58;102710.75;;;3.91;48.63
58072;BME280;60383;46.626;18.866;2023-02-10T08:35:24;102710.25;;;3.04;50.71
58072;BME280;60383;46.626;18.866;2023-02-10T08:37:50;102709.31;;;3.32;49.25
58072;BME280;60383;46.626;18.866;2023-02-10T08:40:16;102702.38;;;3.97;44.99
58072;BME280;60383;46.626;18.866;2023-02-10T08:42:41;102702.28;;;3.51;46.69
58072;BME280;60383;46.626;18.866;2023-02-10T08:45:07;102698.47;;;3.81;46.47
58072;BME280;60383;46.626;18.866;2023-02-10T08:47:34;102701.00;;;2.84;49.54
58072;BME280;60383;46.626;18.866;2023-02-10T08:49:59;102709.38;;;3.79;47.83
58072;BME280;60383;46.626;18.866;2023-02-10T08:52:25;102709.97;;;4.11;46.75
58072;BME280;60383;46.626;18.866;2023-02-10T08:54:50;102721.91;;;4.75;45.03
58072;BME280;60383;46.626;18.866;2023-02-10T08:57:16;102719.59;;;5.09;44.12
58072;BME280;60383;46.626;18.866;2023-02-10T08:59:42;102718.53;;;4.91;44.76
58072;BME280;60383;46.626;18.866;2023-02-10T09:02:10;102714.25;;;5.28;44.06
58072;BME280;60383;46.626;18.866;2023-02-10T09:04:36;102718.34;;;5.59;43.00
58072;BME280;60383;46.626;18.866;2023-02-10T09:07:01;102721.28;;;5.94;40.74
58072;BME280;60383;46.626;18.866;2023-02-10T09:09:27;102718.47;;;5.15;40.91
58072;BME280;60383;46.626;18.866;2023-02-10T09:11:53;102722.59;;;4.80;42.36
58072;BME280;60383;46.626;18.866;2023-02-10T09:14:20;102716.88;;;5.09;42.14
58072;BME280;60383;46.626;18.866;2023-02-10T09:16:45;102704.38;;;5.87;39.89
58072;BME280;60383;46.626;18.866;2023-02-10T09:19:11;102709.13;;;4.77;43.44
58072;BME280;60383;46.626;18.866;2023-02-10T09:21:36;102704.31;;;5.68;40.86
58072;BME280;60383;46.626;18.866;2023-02-10T09:24:02;102716.56;;;5.79;39.96
58072;BME280;60383;46.626;18.866;2023-02-10T09:26:27;102722.00;;;4.94;42.87
58072;BME280;60383;46.626;18.866;2023-02-10T09:28:53;102719.97;;;5.63;41.46
58072;BME280;60383;46.626;18.866;2023-02-10T09:31:18;102714.72;;;6.00;40.04
58072;BME280;60383;46.626;18.866;2023-02-10T09:33:44;102717.94;;;6.08;38.48
58072;BME280;60383;46.626;18.866;2023-02-10T09:36:14;102721.09;;;5.99;40.00
58072;BME280;60383;46.626;18.866;2023-02-10T09:38:40;102714.13;;;5.91;42.13
58072;BME280;60383;46.626;18.866;2023-02-10T09:49:44;102710.38;;;6.34;39.60
58072;BME280;60383;46.626;18.866;2023-02-10T09:57:45;102712.91;;;5.18;42.36
58072;BME280;60383;46.626;18.866;2023-02-10T10:00:34;102712.09;;;5.36;42.19
58072;BME280;60383;46.626;18.866;2023-02-10T10:03:04;102705.84;;;4.25;43.18
58072;BME280;60383;46.626;18.866;2023-02-10T10:11:03;102714.53;;;4.79;41.63
58072;BME280;60383;46.626;18.866;2023-02-10T10:13:30;102715.38;;;5.44;42.52
58072;BME280;60383;46.626;18.866;2023-02-10T10:21:31;102715.31;;;5.86;41.02
58072;BME280;60383;46.626;18.866;2023-02-10T10:24:23;102712.59;;;6.06;39.88
58072;BME280;60383;46.626;18.866;2023-02-10T10:27:06;102707.91;;;6.66;37.31
58072;BME280;60383;46.626;18.866;2023-02-10T10:29:54;102698.06;;;6.63;37.23
58072;BME280;60383;46.626;18.866;2023-02-10T10:35:11;102702.81;;;5.42;40.22
58072;BME280;60383;46.626;18.866;2023-02-10T10:37:39;102697.59;;;5.15;40.54
58072;BME280;60383;46.626;18.866;2023-02-10T10:40:06;102695.25;;;5.49;41.34
58072;BME280;60383;46.626;18.866;2023-02-10T10:42:44;102689.94;;;5.66;40.39
58072;BME280;60383;46.626;18.866;2023-02-10T10:45:20;102695.03;;;5.53;39.23
58072;BME280;60383;46.626;18.866;2023-02-10T10:47:51;102690.47;;;5.54;40.46
58072;BME280;60383;46.626;18.866;2023-02-10T10:50:21;102699.06;;;4.59;40.01
58072;BME280;60383;46.626;18.866;2023-02-10T10:52:50;102694.06;;;4.70;41.15
58072;BME280;60383;46.626;18.866;2023-02-10T10:58:03;102673.50;;;5.49;41.17
58072;BME280;60383;46.626;18.866;2023-02-10T11:00:34;102671.78;;;5.67;40.29
58072;BME280;60383;46.626;18.866;2023-02-10T11:03:02;102668.28;;;5.84;39.91
58072;BME280;60383;46.626;18.866;2023-02-10T11:05:31;102669.22;;;6.59;36.40
58072;BME280;60383;46.626;18.866;2023-02-10T11:07:57;102668.16;;;6.98;41.85
58072;BME280;60383;46.626;18.866;2023-02-10T11:10:38;102671.72;;;6.64;37.60
58072;BME280;60383;46.626;18.866;2023-02-10T11:13:26;102672.00;;;6.02;37.82
58072;BME280;60383;46.626;18.866;2023-02-10T11:16:09;102666.72;;;5.78;38.89
58072;BME280;60383;46.626;18.866;2023-02-10T11:18:35;102660.53;;;6.14;37.96
58072;BME280;60383;46.626;18.866;2023-02-10T11:21:09;102647.56;;;5.81;36.63
58072;BME280;60383;46.626;18.866;2023-02-10T11:23:52;102653.31;;;6.32;37.04
58072;BME280;60383;46.626;18.866;2023-02-10T11:26:23;102645.94;;;5.96;36.50
58072;BME280;60383;46.626;18.866;2023-02-10T11:28:50;102648.75;;;5.55;37.70
58072;BME280;60383;46.626;18.866;2023-02-10T11:31:28;102643.53;;;5.30;38.11
58072;BME280;60383;46.626;18.866;2023-02-10T11:36:39;102635.44;;;5.88;37.30
58072;BME280;60383;46.626;18.866;2023-02-10T11:39:16;102628.31;;;6.05;37.56
58072;BME280;60383;46.626;18.866;2023-02-10T11:41:43;102634.09;;;5.97;38.07
58072;BME280;60383;46.626;18.866;2023-02-10T11:44:34;102631.84;;;6.07;36.55
58072;BME280;60383;46.626;18.866;2023-02-10T11:47:05;102624.44;;;6.47;35.98
58072;BME280;60383;46.626;18.866;2023-02-10T11:49:43;102625.66;;;6.42;34.99
58072;BME280;60383;46.626;18.866;2023-02-10T11:52:09;102616.16;;;5.93;37.04
58072;BME280;60383;46.626;18.866;2023-02-10T11:54:36;102611.50;;;6.70;34.56
58072;BME280;60383;46.626;18.866;2023-02-10T12:10:49;102603.97;;;4.83;38.14
58072;BME280;60383;46.626;18.866;2023-02-10T12:13:27;102591.59;;;5.17;37.00
58072;BME280;60383;46.626;18.866;2023-02-10T12:26:41;102587.25;;;6.29;34.99
58072;BME280;60383;46.626;18.866;2023-02-10T12:48:19;102583.94;;;6.22;35.03
58072;BME280;60383;46.626;18.866;2023-02-10T12:53:28;102578.09;;;5.93;36.80
58072;BME280;60383;46.626;18.866;2023-02-10T12:56:05;102574.22;;;4.79;38.22
58072;BME280;60383;46.626;18.866;2023-02-10T12:58:36;102571.66;;;5.37;37.23
58072;BME280;60383;46.626;18.866;2023-02-10T13:01:25;102573.94;;;5.06;38.83
58072;BME280;60383;46.626;18.866;2023-02-10T13:04:03;102566.47;;;5.51;38.15
58072;BME280;60383;46.626;18.866;2023-02-10T13:06:37;102569.19;;;4.50;38.68
58072;BME280;60383;46.626;18.866;2023-02-10T13:09:34;102559.31;;;4.90;39.16
58072;BME280;60383;46.626;18.866;2023-02-10T13:12:27;102553.25;;;5.63;37.52
58072;BME280;60383;46.626;18.866;2023-02-10T13:15:15;102547.50;;;5.50;37.26
58072;BME280;60383;46.626;18.866;2023-02-10T13:17:47;102542.13;;;5.67;36.30
58072;BME280;60383;46.626;18.866;2023-02-10T13:34:44;102545.63;;;5.52;38.39
58072;BME280;60383;46.626;18.866;2023-02-10T13:39:54;102538.78;;;6.00;37.01
58072;BME280;60383;46.626;18.866;2023-02-10T13:42:34;102545.19;;;5.98;36.78
58072;BME280;60383;46.626;18.866;2023-02-10T13:45:24;102556.78;;;5.84;36.95
58072;BME280;60383;46.626;18.866;2023-02-10T13:50:26;102549.06;;;5.55;37.01
58072;BME280;60383;46.626;18.866;2023-02-10T13:52:59;102557.28;;;5.92;36.92
58072;BME280;60383;46.626;18.866;2023-02-10T14:00:41;102557.03;;;6.16;36.13
58072;BME280;60383;46.626;18.866;2023-02-10T14:05:51;102543.75;;;5.90;37.10
58072;BME280;60383;46.626;18.866;2023-02-10T14:13:43;102543.75;;;5.90;37.41
58072;BME280;60383;46.626;18.866;2023-02-10T14:18:43;102551.28;;;6.04;37.64
58072;BME280;60383;46.626;18.866;2023-02-10T14:21:14;102551.69;;;5.95;37.17
58072;BME280;60383;46.626;18.866;2023-02-10T14:23:49;102557.88;;;5.60;37.73
58072;BME280;60383;46.626;18.866;2023-02-10T14:26:23;102553.09;;;5.66;37.62
58072;BME280;60383;46.626;18.866;2023-02-10T14:28:54;102557.06;;;5.78;38.36
58072;BME280;60383;46.626;18.866;2023-02-10T14:31:29;102555.06;;;5.43;39.05
58072;BME280;60383;46.626;18.866;2023-02-10T14:33:59;102553.97;;;5.47;40.35
58072;BME280;60383;46.626;18.866;2023-02-10T14:36:26;102546.84;;;5.83;38.22
58072;BME280;60383;46.626;18.866;2023-02-10T14:39:00;102541.28;;;5.67;37.76
58072;BME280;60383;46.626;18.866;2023-02-10T14:41:28;102542.44;;;5.80;36.94
58072;BME280;60383;46.626;18.866;2023-02-10T14:43:54;102545.09;;;5.63;37.28
58072;BME280;60383;46.626;18.866;2023-02-10T14:46:23;102545.88;;;5.65;37.62
58072;BME280;60383;46.626;18.866;2023-02-10T14:48:57;102542.59;;;5.58;38.08
58072;BME280;60383;46.626;18.866;2023-02-10T14:51:28;102533.34;;;5.62;38.36
58072;BME280;60383;46.626;18.866;2023-02-10T14:53:54;102540.97;;;5.54;37.94
58072;BME280;60383;46.626;18.866;2023-02-10T14:56:25;102548.03;;;5.58;39.32
58072;BME280;60383;46.626;18.866;2023-02-10T14:58:51;102547.81;;;5.43;38.05
58072;BME280;60383;46.626;18.866;2023-02-10T15:01:33;102545.78;;;5.28;38.74
58072;BME280;60383;46.626;18.866;2023-02-10T15:03:59;102548.25;;;5.14;39.38
58072;BME280;60383;46.626;18.866;2023-02-10T15:06:28;102550.53;;;5.04;38.30
58072;BME280;60383;46.626;18.866;2023-02-10T15:09:02;102549.28;;;5.11;38.87
58072;BME280;60383;46.626;18.866;2023-02-10T15:11:36;102545.91;;;5.06;38.47
58072;BME280;60383;46.626;18.866;2023-02-10T15:14:34;102552.56;;;4.99;38.93